createdAt,value
2022-11-29T00:01:32.634Z,-0.56
2022-11-29T00:04:34.495Z,-0.58
2022-11-29T00:07:36.566Z,-0.65
2022-11-29T00:10:38.644Z,-0.66
2022-11-29T00:13:40.665Z,-0.66
2022-11-29T00:16:42.757Z,-0.70
2022-11-29T00:19:45.247Z,-0.64
2022-11-29T00:22:47.142Z,-0.68
2022-11-29T00:25:49.023Z,-0.70
2022-11-29T00:28:50.987Z,-0.73
2022-11-29T00:31:53.168Z,-0.70
2022-11-29T00:34:57.260Z,-0.76
2022-11-29T00:38:01.295Z,-0.72
2022-11-29T00:41:03.649Z,-0.68
2022-11-29T00:44:05.679Z,-0.70
2022-11-29T00:47:07.581Z,-0.66
2022-11-29T00:50:09.726Z,-0.76
2022-11-29T00:53:11.632Z,-0.71
2022-11-29T00:56:13.651Z,-0.74
2022-11-29T00:59:15.561Z,-0.68
2022-11-29T01:02:17.475Z,-0.62
2022-11-29T01:05:19.922Z,-0.67
2022-11-29T01:08:21.760Z,-0.62
2022-11-29T01:11:26.412Z,-0.58
2022-11-29T01:14:28.291Z,-0.52
2022-11-29T01:17:30.185Z,-0.57
2022-11-29T01:20:32.091Z,-0.49
2022-11-29T01:23:35.352Z,-0.50
2022-11-29T01:26:37.325Z,-0.56
2022-11-29T01:29:39.282Z,-0.58
2022-11-29T01:32:41.171Z,-0.52
2022-11-29T01:35:51.639Z,-0.52
2022-11-29T01:38:53.550Z,-0.54
2022-11-29T01:41:55.523Z,-0.51
2022-11-29T01:45:01.891Z,-0.43
2022-11-29T01:48:04.427Z,-0.48
2022-11-29T01:51:06.345Z,-0.45
2022-11-29T01:54:10.173Z,-0.44
2022-11-29T01:57:13.143Z,-0.43
2022-11-29T02:00:19.904Z,-0.55
2022-11-29T02:03:21.763Z,-0.55
2022-11-29T02:06:23.799Z,-0.47
2022-11-29T02:09:25.590Z,-0.46
2022-11-29T02:12:36.436Z,-0.47
2022-11-29T02:15:46.314Z,-0.57
2022-11-29T02:19:03.057Z,-0.50
2022-11-29T02:22:31.405Z,-0.39
2022-11-29T02:25:51.337Z,-0.40
2022-11-29T02:29:29.665Z,-0.44
2022-11-29T02:32:49.354Z,-0.49
2022-11-29T02:36:06.077Z,-0.54
2022-11-29T02:39:24.481Z,-0.50
2022-11-29T02:42:29.379Z,-0.48
2022-11-29T02:45:59.116Z,-0.54
2022-11-29T02:49:14.522Z,-0.53
2022-11-29T02:52:27.887Z,-0.57
2022-11-29T02:56:17.451Z,-0.55
2022-11-29T02:59:38.059Z,-0.53
2022-11-29T03:02:53.101Z,-0.63
2022-11-29T03:06:07.434Z,-0.65
2022-11-29T03:09:27.602Z,-0.71
2022-11-29T03:12:40.409Z,-0.65
2022-11-29T03:15:53.932Z,-0.63
2022-11-29T03:19:15.328Z,-0.59
2022-11-29T03:22:32.994Z,-0.74
2022-11-29T03:25:47.340Z,-0.79
2022-11-29T03:29:07.006Z,-0.82
2022-11-29T03:32:14.772Z,-0.84
2022-11-29T03:35:19.295Z,-0.84
2022-11-29T03:38:41.622Z,-0.85
2022-11-29T03:41:49.850Z,-0.86
2022-11-29T03:45:05.811Z,-0.95
2022-11-29T03:48:24.616Z,-1.03
2022-11-29T03:51:47.298Z,-1.05
2022-11-29T03:55:01.056Z,-1.13
2022-11-29T03:58:44.030Z,-1.16
2022-11-29T04:02:20.200Z,-1.06
2022-11-29T04:05:40.646Z,-1.07
2022-11-29T04:08:51.771Z,-1.14
2022-11-29T04:12:19.662Z,-1.14
2022-11-29T04:15:48.446Z,-1.17
2022-11-29T04:19:11.715Z,-1.13
2022-11-29T04:22:31.809Z,-1.15
2022-11-29T04:26:10.851Z,-1.13
2022-11-29T04:29:21.774Z,-1.27
2022-11-29T04:33:00.298Z,-1.29
2022-11-29T04:36:32.347Z,-1.36
2022-11-29T04:39:46.287Z,-1.39
2022-11-29T04:43:06.806Z,-1.44
2022-11-29T04:46:16.893Z,-1.38
2022-11-29T04:49:28.053Z,-1.37
2022-11-29T04:53:03.392Z,-1.42
2022-11-29T04:56:43.567Z,-1.48
2022-11-29T04:59:54.193Z,-1.43
2022-11-29T05:03:04.792Z,-1.33
2022-11-29T05:06:50.088Z,-1.38
2022-11-29T05:10:03.454Z,-1.43
2022-11-29T05:13:24.996Z,-1.43
2022-11-29T05:16:38.753Z,-1.41
2022-11-29T05:20:10.506Z,-1.46
2022-11-29T05:23:44.863Z,-1.49
2022-11-29T05:27:03.755Z,-1.70
2022-11-29T05:30:20.620Z,-1.58
2022-11-29T05:33:37.456Z,-1.55
2022-11-29T05:36:50.066Z,-1.62
2022-11-29T05:40:34.858Z,-1.57
2022-11-29T05:43:59.801Z,-1.63
2022-11-29T05:47:04.352Z,-1.65
2022-11-29T05:50:18.673Z,-1.64
2022-11-29T05:53:27.575Z,-1.73
2022-11-29T05:57:01.606Z,-1.52
2022-11-29T06:00:06.414Z,-1.53
2022-11-29T06:03:46.849Z,-1.44
2022-11-29T06:07:08.839Z,-1.58
2022-11-29T06:10:17.886Z,-1.64
2022-11-29T06:13:57.100Z,-1.47
2022-11-29T06:17:23.057Z,-1.42
2022-11-29T06:20:58.663Z,-1.47
2022-11-29T06:24:25.730Z,-1.47
2022-11-29T06:28:04.886Z,-1.51
2022-11-29T06:31:18.938Z,-1.59
2022-11-29T06:34:36.224Z,-1.60
2022-11-29T06:37:48.945Z,-1.61
2022-11-29T06:40:53.234Z,-1.64
2022-11-29T06:43:58.126Z,-1.67
2022-11-29T06:47:09.354Z,-1.71
2022-11-29T12:47:35.689Z,0.53
2022-11-29T12:51:03.725Z,0.52
2022-11-29T12:54:24.615Z,0.57
2022-11-29T12:57:50.863Z,0.56
2022-11-29T13:01:21.360Z,0.52
2022-11-29T13:04:49.346Z,0.56
2022-11-29T13:08:20.186Z,0.57
2022-11-29T13:11:49.348Z,0.60
2022-11-29T13:15:17.153Z,0.49
2022-11-29T13:18:23.393Z,0.42
2022-11-29T13:21:37.268Z,0.44
2022-11-29T13:24:50.895Z,0.42
2022-11-29T13:28:03.720Z,0.35
2022-11-29T13:31:09.599Z,0.34
2022-11-29T13:34:41.558Z,0.29
2022-11-29T13:37:55.189Z,0.20
2022-11-29T13:41:19.793Z,0.16
2022-11-29T13:44:46.180Z,0.22
2022-11-29T13:47:50.556Z,0.17
2022-11-29T13:50:52.373Z,0.14
2022-11-29T13:54:03.387Z,0.16
2022-11-29T13:57:09.631Z,0.13
2022-11-29T20:15:05.387Z,-2.98
2022-11-29T20:18:07.658Z,-2.95
2022-11-29T20:21:15.085Z,-2.92
2022-11-29T20:24:18.009Z,-2.92
2022-11-29T20:27:20.742Z,-2.96
2022-11-29T20:30:22.823Z,-2.95
2022-11-29T20:33:25.634Z,-2.99
2022-11-29T20:36:45.477Z,-3.00
2022-11-29T20:40:08.583Z,-3.00
2022-11-29T20:43:22.599Z,-3.11
2022-11-29T20:46:25.950Z,-3.09
2022-11-29T20:49:28.306Z,-3.05
2022-11-29T20:52:32.931Z,-3.11
2022-11-29T20:55:41.453Z,-3.08
2022-11-29T20:58:48.211Z,-3.13
2022-11-29T21:01:50.948Z,-3.18
2022-11-29T21:04:52.887Z,-3.17
2022-11-29T21:07:54.838Z,-3.16
2022-11-29T21:11:05.961Z,-3.30
2022-11-29T21:14:09.160Z,-3.36
2022-11-29T21:17:11.272Z,-3.33
2022-11-29T21:20:23.595Z,-3.33
2022-11-29T21:24:06.833Z,-3.29
2022-11-29T21:27:14.915Z,-3.37
2022-11-29T21:30:20.020Z,-3.42
2022-11-29T21:33:22.073Z,-3.50
2022-11-29T21:36:24.039Z,-3.59
2022-11-29T21:39:32.809Z,-3.53
2022-11-29T21:42:34.779Z,-3.58
2022-11-29T21:45:36.746Z,-3.60
2022-11-29T21:48:38.581Z,-3.60
2022-11-29T21:51:40.953Z,-3.66
2022-11-29T21:54:42.826Z,-3.71
2022-11-29T21:57:44.691Z,-3.71
2022-11-29T22:00:46.545Z,-3.75
2022-11-29T22:03:48.545Z,-3.76
2022-11-29T22:06:50.594Z,-3.81
2022-11-29T22:09:52.460Z,-3.81
2022-11-29T22:12:54.233Z,-3.81
2022-11-29T22:16:04.762Z,-3.80
2022-11-29T22:19:06.576Z,-3.74
2022-11-29T22:22:10.936Z,-3.78
2022-11-29T22:25:12.766Z,-3.74
2022-11-29T22:28:14.576Z,-3.79
2022-11-29T22:31:16.470Z,-3.79
2022-11-29T22:34:19.016Z,-3.81
2022-11-29T22:37:20.989Z,-3.93
2022-11-29T22:40:22.881Z,-3.84
2022-11-29T22:43:24.729Z,-3.80
2022-11-29T22:46:27.909Z,-3.81
2022-11-29T22:49:30.136Z,-3.86
2022-11-29T22:52:31.974Z,-3.76
2022-11-29T22:55:33.837Z,-3.89
2022-11-29T22:58:36.363Z,-3.79
2022-11-29T23:01:40.796Z,-3.84
2022-11-29T23:04:44.732Z,-3.83
2022-11-29T23:07:47.414Z,-3.82
2022-11-29T23:10:57.185Z,-3.86
2022-11-29T23:13:59.063Z,-3.83
2022-11-29T23:17:00.911Z,-3.88
2022-11-29T23:20:02.778Z,-3.86
2022-11-29T23:23:04.641Z,-3.77
2022-11-29T23:26:08.701Z,-3.77
2022-11-29T23:29:13.966Z,-3.76
2022-11-29T23:32:15.847Z,-3.79
2022-11-29T23:35:17.740Z,-3.78
2022-11-29T23:38:19.592Z,-3.86
2022-11-29T23:41:21.555Z,-3.84
2022-11-29T23:44:23.394Z,-3.92
2022-11-29T23:47:25.321Z,-3.89
2022-11-29T23:50:27.219Z,-3.87
2022-11-29T23:53:29.085Z,-3.94
2022-11-29T23:56:35.385Z,-3.96
2022-11-29T23:59:37.445Z,-3.95
